map of TLM home
TLM - Airport
Location
City:  Tlemcen, Tlemcen, Algeria
Name:Zenata-Messali El Hadj Airport
ICAO:DAON
IATA:TLM

Details
Type:Airport (Aerodrome, Airfield)
Use:Public/Civil, International (customs port of entry)
Latitude:3500'55"N (35.015278)
Longitude:127'03"W (-1.450832)
Elevation:814 ft (248 m)
Variation:0.03E (WMM2015 magnetic declination)
0.11 annual change
Runways:1
Longest:8530 × 148 ft (2600 × 45 m)

Time
Time Zone:UTC+1
Local Time:

Weather
METAR:DAON 190230Z 21012KT 9999 BKN026 13/08 Q1003
TAF:DAON 182300Z 1900/1924 20014KT 9999 FEW026 BKN233
TEMPO 1901/1903 20016G32KT
TEMPO 1904/1910 9000 TSRA FEW023CB BKN026 BKN100
BECMG 1911/1915 20010KT 9999 SCT026 SCT220
BECMG 1918/1921 VRB02KT
BECMG 1922/1924 20010KT 9999 FEW026

Related Locations
Nearby:
Farthest:NZOX: 12248 mi / 19712 km
Okiwi Station, AUK, NZ

Find:

   beyond  
but within

Other Information
Maps:
NOTAMs:
Links:
Sources:

  
  • flag of Algeria
  

Sectional Chart

Flight Planning
at skyvector.com

Satellite Image

Google Maps Satellite view

 

Copyright © 2004-2018 Karl L. Swartz. All rights reserved.
The Great Circle Mapper name and logo are trademarks of the Great Circle Mapper.
All other trademarks mentioned herein belong to their respective owners.
Please see credits for attibutions and further copyright information.

  Follow gcmap on Facebook Follow gcmap on Twitter Follow gcmap on Google+ GCmap on LinkedIn

hCard Microformat

Geo Microformat